Time;durP1;ratioP1;P1;durP2;ratioP2;P2;SDS_P1;SDS_P2;PMS_P1;PMS_P2;Temp;Humidity;BMP_temperature;BMP_pressure;BME280_temperature;BME280_humidity;BME280_pressure;Samples;Min_cycle;Max_cycle;Signal;HPM_P1;HPM_P2
2021/12/02 00:01:22;;;;;;;5.63;1.40;;;3.90;99.90;;;;;;5022351;28;20770;-74
2021/12/02 00:03:49;;;;;;;5.40;1.73;;;3.90;99.90;;;;;;5011228;28;20476;-74
2021/12/02 00:06:18;;;;;;;2.37;0.90;;;3.90;99.90;;;;;;5018192;28;20174;-74
2021/12/02 00:08:44;;;;;;;2.77;1.37;;;4.00;99.90;;;;;;5021872;28;20773;-74
2021/12/02 00:11:10;;;;;;;5.20;1.17;;;3.90;99.90;;;;;;5018277;28;20433;-74
2021/12/02 00:13:57;;;;;;;4.20;1.60;;;3.90;99.90;;;;;;5015188;28;20434;-75
2021/12/02 00:21:51;;;;;;;6.93;1.67;;;3.90;99.90;;;;;;5022520;28;20476;-75
2021/12/02 00:24:19;;;;;;;6.00;1.63;;;3.90;99.90;;;;;;5016474;28;20870;-75
2021/12/02 00:26:46;;;;;;;6.60;1.37;;;4.00;99.90;;;;;;5020518;28;20489;-75
2021/12/02 00:29:15;;;;;;;5.40;1.40;;;3.90;99.90;;;;;;5003366;28;20426;-75
2021/12/02 00:31:41;;;;;;;7.50;2.23;;;3.90;99.90;;;;;;5015109;28;20726;-75
2021/12/02 00:34:08;;;;;;;3.30;1.10;;;3.90;99.90;;;;;;5017740;28;20513;-75
2021/12/02 00:36:36;;;;;;;2.67;1.30;;;3.90;99.90;;;;;;5022160;28;20213;-75
2021/12/02 00:39:07;;;;;;;6.10;1.30;;;3.90;99.90;;;;;;5019913;28;20434;-75
2021/12/02 00:41:33;;;;;;;5.93;1.53;;;3.90;99.90;;;;;;5018768;28;20431;-75
2021/12/02 00:43:59;;;;;;;4.70;1.47;;;3.90;99.90;;;;;;5020847;28;20456;-75
2021/12/02 00:46:27;;;;;;;5.47;1.50;;;3.90;99.90;;;;;;5021458;28;20172;-74
2021/12/02 00:48:53;;;;;;;4.67;1.00;;;3.90;99.90;;;;;;5021391;28;20176;-75
2021/12/02 00:51:20;;;;;;;3.90;1.50;;;3.90;99.90;;;;;;5023545;28;20409;-75
2021/12/02 00:53:52;;;;;;;2.97;1.40;;;3.80;99.90;;;;;;5020972;28;20430;-75
2021/12/02 00:56:22;;;;;;;6.20;1.80;;;3.70;99.90;;;;;;5005331;28;20507;-74
2021/12/02 00:58:49;;;;;;;6.00;1.67;;;3.70;99.90;;;;;;5023378;28;20520;-75
2021/12/02 01:01:17;;;;;;;7.10;2.57;;;3.60;99.90;;;;;;5022095;28;20535;-75
2021/12/02 01:03:43;;;;;;;2.63;1.00;;;3.60;99.90;;;;;;5021159;28;20454;-75
2021/12/02 01:06:09;;;;;;;1.23;1.17;;;3.60;99.90;;;;;;5014714;28;20435;-75
2021/12/02 01:08:36;;;;;;;1.13;0.90;;;3.60;99.90;;;;;;5016900;28;20891;-75
2021/12/02 01:11:03;;;;;;;7.00;1.60;;;3.50;99.90;;;;;;5018952;28;20170;-75
2021/12/02 01:13:28;;;;;;;2.73;1.13;;;3.50;99.90;;;;;;5021958;28;20441;-75
2021/12/02 01:15:54;;;;;;;1.17;0.90;;;3.40;99.90;;;;;;5021012;28;20429;-74
2021/12/02 01:18:21;;;;;;;0.90;0.90;;;3.30;99.90;;;;;;5023450;28;20177;-74
2021/12/02 01:20:49;;;;;;;1.80;1.27;;;3.30;99.90;;;;;;5020710;28;20174;-75
2021/12/02 01:23:20;;;;;;;2.77;1.10;;;3.30;99.90;;;;;;5022091;28;20454;-75
2021/12/02 01:25:55;;;;;;;5.83;1.17;;;3.30;99.90;;;;;;5020888;28;20461;-74
2021/12/02 01:28:25;;;;;;;4.30;1.10;;;3.20;99.90;;;;;;5022537;28;20420;-74
2021/12/02 01:30:53;;;;;;;2.63;0.93;;;3.20;99.90;;;;;;5020663;28;20429;-75
2021/12/02 01:33:20;;;;;;;0.80;0.80;;;3.20;99.90;;;;;;5037433;28;20566;-75
2021/12/02 01:35:50;;;;;;;2.80;0.90;;;3.10;99.90;;;;;;5020982;28;20455;-75
2021/12/02 01:38:16;;;;;;;2.60;0.90;;;3.10;99.90;;;;;;5021355;28;20420;-75
2021/12/02 01:40:44;;;;;;;1.60;1.00;;;3.00;99.90;;;;;;5019577;28;20444;-75
2021/12/02 01:43:16;;;;;;;0.90;0.87;;;3.00;99.90;;;;;;5018954;28;20454;-75
2021/12/02 01:45:42;;;;;;;4.93;0.87;;;3.00;99.90;;;;;;5019783;28;20431;-75
2021/12/02 01:48:19;;;;;;;1.00;0.70;;;3.00;99.90;;;;;;5022601;28;20416;-75
2021/12/02 01:51:03;;;;;;;2.77;1.10;;;3.10;99.90;;;;;;5019649;28;20677;-74
2021/12/02 01:53:33;;;;;;;0.80;0.70;;;3.00;99.90;;;;;;5020673;28;20430;-75
2021/12/02 01:56:10;;;;;;;5.60;1.67;;;3.00;99.90;;;;;;5019237;28;21065;-75
2021/12/02 01:58:57;;;;;;;2.30;0.90;;;2.90;99.90;;;;;;5021599;28;20424;-75
2021/12/02 02:01:26;;;;;;;2.30;1.10;;;2.90;99.90;;;;;;5021676;28;20410;-75
2021/12/02 02:03:54;;;;;;;1.53;1.43;;;2.80;99.90;;;;;;5017590;28;20465;-75
2021/12/02 02:06:28;;;;;;;2.60;0.90;;;2.80;99.90;;;;;;5015228;28;20425;-75
2021/12/02 02:08:57;;;;;;;0.80;0.80;;;2.90;99.90;;;;;;5016123;28;20817;-75
2021/12/02 02:11:28;;;;;;;0.87;0.87;;;2.80;99.90;;;;;;5019168;28;20465;-75
2021/12/02 02:13:55;;;;;;;2.53;1.07;;;2.80;99.90;;;;;;5020196;28;20424;-75
2021/12/02 02:16:21;;;;;;;1.33;0.60;;;2.80;99.90;;;;;;5021022;28;20416;-74
2021/12/02 02:18:46;;;;;;;0.70;0.63;;;2.90;99.90;;;;;;5018984;28;20441;-74
2021/12/02 02:21:17;;;;;;;2.30;0.80;;;2.90;99.90;;;;;;5020200;28;20638;-74
2021/12/02 02:23:51;;;;;;;1.43;1.33;;;2.90;99.90;;;;;;5020900;28;20463;-74
2021/12/02 02:26:23;;;;;;;1.77;0.97;;;3.00;99.90;;;;;;5020216;28;20447;-74
2021/12/02 02:28:50;;;;;;;0.70;0.70;;;3.10;99.90;;;;;;5018414;28;20427;-74
2021/12/02 02:31:15;;;;;;;1.23;1.13;;;2.90;99.90;;;;;;5004496;28;20770;-74
2021/12/02 02:33:43;;;;;;;1.60;0.90;;;3.00;99.90;;;;;;5020736;28;20433;-74
2021/12/02 02:36:09;;;;;;;4.93;1.30;;;3.00;99.90;;;;;;5015309;28;20503;-74
2021/12/02 02:38:36;;;;;;;2.53;0.80;;;3.00;99.90;;;;;;5017006;28;20430;-74
2021/12/02 02:41:03;;;;;;;0.90;0.90;;;3.00;99.90;;;;;;5018215;28;20471;-74
2021/12/02 02:43:32;;;;;;;1.90;0.87;;;2.90;99.90;;;;;;5020652;28;20486;-74
2021/12/02 02:45:58;;;;;;;2.67;0.90;;;3.00;99.90;;;;;;5023826;28;20433;-74
2021/12/02 02:48:24;;;;;;;1.57;0.90;;;3.10;99.90;;;;;;5019504;28;20536;-74
2021/12/02 02:50:50;;;;;;;1.90;1.17;;;3.10;99.90;;;;;;5017932;28;20524;-74
2021/12/02 02:53:21;;;;;;;3.90;1.20;;;3.00;99.90;;;;;;5020164;28;20186;-74
2021/12/02 02:55:58;;;;;;;1.50;1.30;;;3.00;99.90;;;;;;5022493;28;20210;-74
2021/12/02 02:58:44;;;;;;;1.53;0.67;;;2.90;99.90;;;;;;5020167;28;20482;-74
2021/12/02 03:08:48;;;;;;;1.60;1.00;;;2.80;99.90;;;;;;5020746;28;20234;-74
2021/12/02 03:11:16;;;;;;;0.80;0.80;;;2.80;99.90;;;;;;5020840;28;20420;-74
2021/12/02 03:13:52;;;;;;;2.83;0.90;;;2.80;99.90;;;;;;5018699;28;20445;-74
2021/12/02 03:19:04;;;;;;;0.73;0.73;;;2.80;99.90;;;;;;5017826;28;20917;-74
2021/12/02 03:21:30;;;;;;;0.77;0.77;;;2.70;99.90;;;;;;5022749;28;20451;-74
2021/12/02 03:23:58;;;;;;;0.70;0.70;;;2.70;99.90;;;;;;5017506;28;20465;-74
2021/12/02 03:26:25;;;;;;;2.10;0.83;;;2.70;99.90;;;;;;5018838;28;20187;-74
2021/12/02 03:28:52;;;;;;;1.00;0.83;;;2.70;99.90;;;;;;5017309;28;20493;-74
2021/12/02 03:31:18;;;;;;;0.70;0.70;;;2.70;99.90;;;;;;5021734;28;20440;-74
2021/12/02 03:33:44;;;;;;;9.63;0.93;;;2.70;99.90;;;;;;5021959;28;20437;-74
2021/12/02 03:36:11;;;;;;;1.80;0.73;;;2.70;99.90;;;;;;5021224;28;21001;-74
2021/12/02 03:38:38;;;;;;;3.50;0.90;;;2.70;99.90;;;;;;5023008;28;20433;-74
2021/12/02 03:41:04;;;;;;;0.90;0.70;;;2.70;99.90;;;;;;5017408;28;20449;-74
2021/12/02 03:43:37;;;;;;;1.17;0.90;;;2.80;99.90;;;;;;5018644;28;20472;-74
2021/12/02 03:46:04;;;;;;;2.80;0.80;;;2.80;99.90;;;;;;5018658;28;20944;-74
2021/12/02 03:48:30;;;;;;;2.83;0.67;;;2.70;99.90;;;;;;5021107;28;20522;-74
2021/12/02 03:50:56;;;;;;;1.47;0.93;;;2.70;99.90;;;;;;5018372;28;20936;-74
2021/12/02 03:53:22;;;;;;;0.87;0.80;;;2.80;99.90;;;;;;5021161;28;20452;-74
2021/12/02 03:55:48;;;;;;;5.33;1.53;;;2.70;99.90;;;;;;5021914;28;20797;-74
2021/12/02 03:58:13;;;;;;;4.40;1.47;;;2.70;99.90;;;;;;5018771;28;20190;-74
2021/12/02 04:00:39;;;;;;;1.00;0.73;;;2.60;99.90;;;;;;5019139;28;20713;-74
2021/12/02 04:03:05;;;;;;;2.20;1.00;;;2.60;99.90;;;;;;5016587;28;20280;-74
2021/12/02 04:05:31;;;;;;;1.33;0.73;;;2.60;99.90;;;;;;5023097;28;20437;-74
2021/12/02 04:07:56;;;;;;;0.70;0.70;;;2.50;99.90;;;;;;5016486;28;20626;-74
2021/12/02 04:10:23;;;;;;;1.33;0.73;;;2.50;99.90;;;;;;5019755;28;20178;-74
2021/12/02 04:12:57;;;;;;;3.40;0.90;;;2.50;99.90;;;;;;5020458;28;20306;-74
2021/12/02 04:15:32;;;;;;;2.30;1.90;;;2.30;99.90;;;;;;5013308;28;20454;-74
2021/12/02 04:17:58;;;;;;;1.37;0.90;;;2.30;99.90;;;;;;5016186;28;20479;-74
2021/12/02 04:20:25;;;;;;;0.80;0.80;;;2.30;99.90;;;;;;5019488;28;20814;-74
2021/12/02 04:22:52;;;;;;;0.87;0.77;;;2.20;99.90;;;;;;5022247;28;20186;-74
2021/12/02 04:25:19;;;;;;;1.33;0.60;;;2.20;99.90;;;;;;5018939;28;20439;-74
2021/12/02 04:27:46;;;;;;;0.77;0.77;;;2.20;99.90;;;;;;5018400;28;20432;-74
2021/12/02 04:30:15;;;;;;;1.00;1.00;;;2.10;99.90;;;;;;5016496;28;20510;-74
2021/12/02 04:32:41;;;;;;;3.83;1.10;;;2.20;99.90;;;;;;5004263;28;20432;-74
2021/12/02 04:35:08;;;;;;;0.90;0.70;;;2.20;99.90;;;;;;5016953;28;20428;-74
2021/12/02 04:37:34;;;;;;;0.77;0.77;;;2.00;99.90;;;;;;5020729;28;20242;-73
2021/12/02 04:40:00;;;;;;;2.50;1.10;;;2.00;99.90;;;;;;5019213;28;20813;-74
2021/12/02 04:42:25;;;;;;;1.73;0.87;;;1.90;99.90;;;;;;5019552;28;20270;-74
2021/12/02 04:44:51;;;;;;;4.57;1.10;;;1.90;99.90;;;;;;5018337;28;21083;-74
2021/12/02 04:47:17;;;;;;;1.90;0.97;;;1.90;99.90;;;;;;5019791;28;20254;-73
2021/12/02 04:49:43;;;;;;;0.70;0.70;;;1.90;99.90;;;;;;5017853;28;20517;-74
2021/12/02 04:52:10;;;;;;;1.73;1.13;;;1.80;99.90;;;;;;5020980;28;20434;-74
2021/12/02 04:54:36;;;;;;;1.97;0.97;;;1.80;99.90;;;;;;5020730;28;20534;-73
2021/12/02 04:57:02;;;;;;;0.97;0.90;;;1.80;99.90;;;;;;5019905;28;20463;-73
2021/12/02 04:59:27;;;;;;;4.20;1.20;;;1.80;99.90;;;;;;5016619;28;20477;-73
2021/12/02 05:01:53;;;;;;;2.43;0.70;;;1.70;99.90;;;;;;5019077;28;20840;-73
2021/12/02 05:04:19;;;;;;;0.80;0.80;;;1.80;99.90;;;;;;5014249;28;20200;-73
2021/12/02 05:06:44;;;;;;;3.03;1.30;;;1.80;99.90;;;;;;5018108;28;20257;-73
2021/12/02 05:09:10;;;;;;;4.13;1.10;;;1.80;99.90;;;;;;5016162;28;20998;-73
2021/12/02 05:11:38;;;;;;;4.83;1.23;;;1.70;99.90;;;;;;5020864;28;20508;-73
2021/12/02 05:14:04;;;;;;;1.27;0.90;;;1.70;99.90;;;;;;5017540;28;20178;-73
2021/12/02 05:16:29;;;;;;;1.93;1.10;;;1.70;99.90;;;;;;5016396;28;20443;-73
2021/12/02 05:18:55;;;;;;;6.97;1.97;;;1.70;99.90;;;;;;5014956;28;20181;-73
2021/12/02 05:21:20;;;;;;;1.63;0.90;;;1.70;99.90;;;;;;5020236;28;20217;-73
2021/12/02 05:23:51;;;;;;;2.60;1.33;;;1.70;99.90;;;;;;5014329;28;20198;-73
2021/12/02 05:26:17;;;;;;;6.03;1.33;;;1.60;99.90;;;;;;5013038;28;20520;-73
2021/12/02 05:28:42;;;;;;;6.83;0.97;;;1.60;99.90;;;;;;5011653;28;20443;-73
2021/12/02 05:31:08;;;;;;;1.73;0.90;;;1.60;99.90;;;;;;5010635;28;20219;-73
2021/12/02 05:33:33;;;;;;;2.57;1.07;;;1.50;99.90;;;;;;5007247;28;20729;-73
2021/12/02 05:35:59;;;;;;;2.17;0.90;;;1.50;99.90;;;;;;5009882;28;20794;-73
2021/12/02 05:38:25;;;;;;;2.70;1.10;;;1.40;99.90;;;;;;5011521;28;20189;-73
2021/12/02 05:40:50;;;;;;;1.23;0.90;;;1.40;99.90;;;;;;5007889;28;20275;-73
2021/12/02 05:43:16;;;;;;;1.10;1.00;;;1.40;99.90;;;;;;5008596;28;20212;-74
2021/12/02 05:45:42;;;;;;;3.80;1.43;;;1.40;99.90;;;;;;5013720;28;20186;-74
2021/12/02 05:48:07;;;;;;;5.47;1.23;;;1.40;99.90;;;;;;5012825;28;20178;-74
2021/12/02 05:50:33;;;;;;;1.47;0.80;;;1.50;99.90;;;;;;5015929;28;20182;-74
2021/12/02 05:52:58;;;;;;;2.83;1.00;;;1.50;99.90;;;;;;5015871;28;20192;-74
2021/12/02 05:55:24;;;;;;;5.30;1.10;;;1.60;99.90;;;;;;5013512;28;20250;-74
2021/12/02 05:57:50;;;;;;;1.53;1.07;;;1.50;99.90;;;;;;5020496;28;20189;-74
2021/12/02 06:00:16;;;;;;;2.57;1.13;;;1.50;99.90;;;;;;5011134;28;20256;-74
2021/12/02 06:02:42;;;;;;;5.80;0.90;;;1.40;99.90;;;;;;5015937;28;20199;-74
2021/12/02 06:05:08;;;;;;;2.20;1.50;;;1.40;99.90;;;;;;5018464;28;20432;-74
2021/12/02 06:07:33;;;;;;;3.93;1.13;;;1.40;99.90;;;;;;5014102;28;20184;-74
2021/12/02 06:09:59;;;;;;;0.93;0.90;;;1.40;99.90;;;;;;5006502;28;21012;-74
2021/12/02 06:12:25;;;;;;;1.00;0.90;;;1.30;99.90;;;;;;5012809;28;20240;-74
2021/12/02 06:14:51;;;;;;;1.40;1.20;;;1.30;99.90;;;;;;5003398;28;20191;-74
2021/12/02 06:17:16;;;;;;;2.73;1.00;;;1.30;99.90;;;;;;5008794;28;20183;-83
2021/12/02 06:19:42;;;;;;;3.33;1.00;;;1.30;99.90;;;;;;5014066;28;20439;-75
2021/12/02 06:22:09;;;;;;;3.00;1.00;;;1.30;99.90;;;;;;5017820;28;20606;-74
2021/12/02 06:24:54;;;;;;;5.73;1.27;;;1.40;99.90;;;;;;5013292;28;20458;-75
2021/12/02 06:27:20;;;;;;;1.27;1.00;;;1.30;99.90;;;;;;5011988;28;20503;-75
2021/12/02 06:29:46;;;;;;;3.43;1.20;;;1.20;99.90;;;;;;5013130;28;20450;-75
2021/12/02 06:32:11;;;;;;;2.50;1.17;;;1.20;99.90;;;;;;5007667;28;20611;-74
2021/12/02 06:34:37;;;;;;;1.10;1.10;;;1.10;99.90;;;;;;5006793;28;20240;-74
2021/12/02 06:37:03;;;;;;;0.90;0.90;;;1.00;99.90;;;;;;5013154;28;20197;-75
2021/12/02 06:39:28;;;;;;;1.23;1.00;;;1.00;99.90;;;;;;5011205;28;20246;-74
2021/12/02 06:41:54;;;;;;;3.30;1.57;;;0.90;99.90;;;;;;5015551;28;20443;-75
2021/12/02 06:44:20;;;;;;;2.10;0.90;;;0.90;99.90;;;;;;5017080;28;20210;-76
2021/12/02 06:46:45;;;;;;;2.50;1.00;;;0.90;99.90;;;;;;5013973;28;20179;-74
2021/12/02 06:49:11;;;;;;;2.90;1.10;;;0.80;99.90;;;;;;5009851;28;20185;-75
2021/12/02 06:51:36;;;;;;;3.37;1.20;;;0.80;99.90;;;;;;5004491;28;20198;-75
2021/12/02 06:54:04;;;;;;;2.70;1.17;;;0.80;99.90;;;;;;5006502;28;20192;-74
2021/12/02 06:56:30;;;;;;;3.03;1.10;;;0.80;99.90;;;;;;5013051;28;20202;-74
2021/12/02 06:58:56;;;;;;;3.30;1.63;;;0.70;99.90;;;;;;5016532;28;20827;-74
2021/12/02 07:01:21;;;;;;;3.60;1.40;;;0.70;99.90;;;;;;5010396;28;20186;-74
2021/12/02 07:03:47;;;;;;;1.80;1.10;;;0.60;99.90;;;;;;5016357;28;20196;-74
2021/12/02 07:06:13;;;;;;;3.07;1.23;;;0.60;99.90;;;;;;5017104;28;20611;-74
2021/12/02 07:08:38;;;;;;;1.83;1.10;;;0.50;99.90;;;;;;5011737;28;20222;-74
2021/12/02 07:11:07;;;;;;;2.37;1.67;;;0.50;99.90;;;;;;5011094;28;20321;-75
2021/12/02 07:13:35;;;;;;;1.70;1.37;;;0.40;99.90;;;;;;5012928;28;20177;-75
2021/12/02 07:16:01;;;;;;;3.13;1.63;;;0.40;99.90;;;;;;5001453;28;20965;-74
2021/12/02 07:18:26;;;;;;;1.87;1.60;;;0.40;99.90;;;;;;5012918;28;20440;-75
2021/12/02 07:20:52;;;;;;;2.23;2.07;;;0.50;99.90;;;;;;5001429;28;20461;-74
2021/12/02 07:23:20;;;;;;;2.17;2.03;;;0.50;99.90;;;;;;5013265;28;20203;-74
2021/12/02 07:25:47;;;;;;;1.63;1.40;;;0.50;99.90;;;;;;5012922;28;20219;-74
2021/12/02 07:28:14;;;;;;;4.97;1.63;;;0.60;99.90;;;;;;5018133;28;20435;-74
2021/12/02 07:30:40;;;;;;;2.70;1.60;;;0.50;99.90;;;;;;5018387;28;20482;-74
2021/12/02 07:33:09;;;;;;;1.97;1.67;;;0.50;99.90;;;;;;5018402;28;20447;-74
2021/12/02 07:35:35;;;;;;;2.30;1.60;;;0.60;99.90;;;;;;5018588;28;20438;-74
2021/12/02 07:38:02;;;;;;;1.73;1.60;;;0.60;99.90;;;;;;5020118;28;20476;-75
2021/12/02 07:40:36;;;;;;;1.60;1.50;;;0.60;99.90;;;;;;5018662;28;20181;-74
2021/12/02 07:43:02;;;;;;;1.97;1.80;;;0.60;99.90;;;;;;5012575;28;20522;-66
2021/12/02 07:45:35;;;;;;;6.13;2.50;;;0.70;99.90;;;;;;5015049;28;20805;-66
2021/12/02 07:48:03;;;;;;;1.77;1.67;;;0.70;99.90;;;;;;5004528;28;20415;-67
2021/12/02 07:50:29;;;;;;;2.43;1.43;;;0.70;99.90;;;;;;5009546;28;20965;-67
2021/12/02 07:52:59;;;;;;;3.23;1.90;;;0.80;99.90;;;;;;5010347;28;20451;-67
2021/12/02 07:55:25;;;;;;;9.97;2.20;;;0.90;99.90;;;;;;5013995;28;20175;-66
2021/12/02 07:57:51;;;;;;;4.57;2.13;;;0.80;99.90;;;;;;5015931;28;21027;-67
2021/12/02 08:00:21;;;;;;;5.60;1.70;;;0.80;99.90;;;;;;5012939;28;20487;-67
2021/12/02 08:02:49;;;;;;;3.33;1.60;;;0.90;99.90;;;;;;5017426;28;20575;-67
2021/12/02 08:05:15;;;;;;;5.27;1.60;;;0.90;99.90;;;;;;5019343;28;20428;-67
2021/12/02 08:07:44;;;;;;;2.47;1.10;;;1.00;99.90;;;;;;5006496;28;20450;-67
2021/12/02 08:10:12;;;;;;;3.10;1.30;;;1.00;99.90;;;;;;5012139;28;20430;-67
2021/12/02 08:12:39;;;;;;;2.93;1.20;;;1.00;99.90;;;;;;5015268;28;20462;-66
2021/12/02 08:15:08;;;;;;;6.70;2.07;;;1.10;99.90;;;;;;5015984;28;21050;-67
2021/12/02 08:17:34;;;;;;;4.00;1.90;;;1.10;99.90;;;;;;5008579;28;20447;-66
2021/12/02 08:20:00;;;;;;;6.40;1.70;;;1.20;99.90;;;;;;5014425;28;20437;-66
2021/12/02 08:22:27;;;;;;;1.80;1.70;;;1.20;99.90;;;;;;5017412;28;20462;-67
2021/12/02 08:24:53;;;;;;;1.53;1.33;;;1.20;99.90;;;;;;5021637;28;20222;-66
2021/12/02 08:27:19;;;;;;;2.70;1.70;;;1.20;99.90;;;;;;5013470;28;20442;-67
2021/12/02 08:29:45;;;;;;;1.83;1.73;;;1.30;99.90;;;;;;5021197;28;20270;-67
2021/12/02 08:32:11;;;;;;;1.53;1.43;;;1.30;99.90;;;;;;5017824;28;20505;-67
2021/12/02 08:34:37;;;;;;;5.30;1.23;;;1.30;99.90;;;;;;5021405;28;20183;-67
2021/12/02 08:37:04;;;;;;;2.20;1.20;;;1.30;99.90;;;;;;5014668;28;20658;-67
2021/12/02 08:39:31;;;;;;;4.00;1.10;;;1.30;99.90;;;;;;5011609;28;20543;-67
2021/12/02 08:41:57;;;;;;;1.30;1.20;;;1.30;99.90;;;;;;5011495;28;20494;-67
2021/12/02 08:44:25;;;;;;;10.17;2.50;;;1.40;99.90;;;;;;5015905;28;20456;-67
2021/12/02 08:46:52;;;;;;;1.83;1.30;;;1.60;99.90;;;;;;5017384;28;20503;-67
2021/12/02 08:49:20;;;;;;;2.90;0.90;;;1.60;99.90;;;;;;5018108;28;20438;-67
2021/12/02 08:51:46;;;;;;;4.13;1.57;;;1.60;99.90;;;;;;5017077;28;20743;-67
2021/12/02 08:54:12;;;;;;;1.17;1.00;;;1.70;99.90;;;;;;5017655;28;20439;-66
2021/12/02 08:56:39;;;;;;;1.87;1.30;;;1.70;99.90;;;;;;5018429;28;20201;-66
2021/12/02 08:59:04;;;;;;;2.50;1.10;;;1.80;99.90;;;;;;5018314;28;20444;-67
2021/12/02 09:01:32;;;;;;;2.40;1.43;;;1.80;99.90;;;;;;5018001;28;20439;-67
2021/12/02 09:03:58;;;;;;;5.00;1.80;;;1.90;99.90;;;;;;5021753;28;20288;-67
2021/12/02 09:06:24;;;;;;;4.63;2.10;;;1.90;99.90;;;;;;5014983;28;20532;-67
2021/12/02 09:08:54;;;;;;;5.10;2.40;;;1.90;99.90;;;;;;5015427;28;20245;-67
2021/12/02 09:11:20;;;;;;;1.30;1.20;;;2.00;99.90;;;;;;5016836;28;20439;-67
2021/12/02 09:13:46;;;;;;;5.50;1.63;;;2.00;99.90;;;;;;5012266;28;20773;-67
2021/12/02 09:16:13;;;;;;;1.90;1.30;;;2.10;99.90;;;;;;5017909;28;20475;-67
2021/12/02 09:18:39;;;;;;;8.47;2.00;;;2.10;99.90;;;;;;5017986;28;20921;-67
2021/12/02 09:21:05;;;;;;;0.97;0.97;;;2.10;99.90;;;;;;5016838;28;20983;-67
2021/12/02 09:23:30;;;;;;;2.90;1.13;;;2.10;99.90;;;;;;5019525;28;20452;-67
2021/12/02 09:25:56;;;;;;;1.63;1.17;;;2.10;99.90;;;;;;5017796;28;20432;-67
2021/12/02 09:28:22;;;;;;;4.13;2.17;;;2.10;99.90;;;;;;5017827;28;20683;-68
2021/12/02 09:30:47;;;;;;;4.53;1.63;;;2.10;99.90;;;;;;5014592;28;20190;-67
2021/12/02 09:33:13;;;;;;;3.70;1.10;;;2.20;99.90;;;;;;5018608;28;20265;-67
2021/12/02 09:35:39;;;;;;;1.37;1.23;;;2.30;99.90;;;;;;5018066;28;20178;-67
2021/12/02 09:38:08;;;;;;;2.40;1.03;;;2.40;99.90;;;;;;5020899;28;20435;-67
2021/12/02 09:40:35;;;;;;;1.73;1.43;;;2.40;99.90;;;;;;5014297;28;20201;-67
2021/12/02 09:43:01;;;;;;;2.83;1.07;;;2.40;99.90;;;;;;5017858;28;20447;-74
2021/12/02 09:45:27;;;;;;;2.10;1.47;;;2.50;99.90;;;;;;5013090;28;20533;-75
2021/12/02 09:47:55;;;;;;;2.07;1.13;;;2.60;99.90;;;;;;5018514;28;20976;-74
2021/12/02 09:50:29;;;;;;;3.70;1.17;;;2.60;99.90;;;;;;5013243;28;20186;-74
2021/12/02 09:53:00;;;;;;;5.10;1.63;;;2.60;99.90;;;;;;5017854;28;20502;-74
2021/12/02 09:55:49;;;;;;;3.53;1.37;;;2.60;99.90;;;;;;5015069;28;20525;-74
2021/12/02 09:58:21;;;;;;;7.47;1.80;;;2.50;99.90;;;;;;5017587;28;20424;-74
2021/12/02 10:00:53;;;;;;;4.00;1.50;;;2.60;99.90;;;;;;5017983;28;20429;-74
2021/12/02 10:03:23;;;;;;;2.20;1.27;;;2.60;99.90;;;;;;5015484;28;20492;-74
2021/12/02 10:06:04;;;;;;;3.83;1.17;;;2.70;99.90;;;;;;5018688;28;20438;-74
2021/12/02 10:08:33;;;;;;;1.27;1.00;;;2.80;99.90;;;;;;5007191;28;20429;-75
2021/12/02 10:11:07;;;;;;;6.00;1.40;;;2.90;99.90;;;;;;5010520;28;20442;-74
2021/12/02 10:13:45;;;;;;;1.67;1.30;;;2.90;99.90;;;;;;5016915;28;20431;-75
2021/12/02 10:16:23;;;;;;;2.73;1.50;;;3.00;99.90;;;;;;5016848;28;20425;-75
2021/12/02 10:19:02;;;;;;;4.03;2.13;;;3.00;99.90;;;;;;5020195;28;20627;-75
2021/12/02 10:21:36;;;;;;;1.73;1.03;;;2.90;99.90;;;;;;5018170;28;20526;-75
2021/12/02 10:24:06;;;;;;;2.97;1.63;;;3.00;99.90;;;;;;5016958;28;20463;-75
2021/12/02 10:27:02;;;;;;;1.57;1.00;;;3.10;99.90;;;;;;5014075;28;20436;-75
2021/12/02 10:29:32;;;;;;;1.30;1.20;;;3.20;99.90;;;;;;5011715;28;20505;-76
2021/12/02 10:32:19;;;;;;;3.80;1.50;;;3.20;99.90;;;;;;5014351;28;20449;-75
2021/12/02 10:35:10;;;;;;;1.10;0.93;;;3.30;99.90;;;;;;5009638;28;20468;-75
2021/12/02 10:37:40;;;;;;;3.23;1.73;;;3.40;99.90;;;;;;5019256;28;20760;-75
2021/12/02 10:40:08;;;;;;;4.97;1.90;;;3.50;99.90;;;;;;5019342;28;20436;-75
2021/12/02 10:42:38;;;;;;;2.70;1.80;;;3.40;99.90;;;;;;5018905;28;20425;-76
2021/12/02 10:45:17;;;;;;;4.20;1.50;;;3.40;99.90;;;;;;5012782;28;20567;-76
2021/12/02 10:47:51;;;;;;;3.93;1.37;;;3.40;99.90;;;;;;5017294;28;20465;-76
2021/12/02 10:50:18;;;;;;;12.53;2.10;;;3.50;99.90;;;;;;5015027;28;20904;-77
2021/12/02 10:52:43;;;;;;;4.23;1.30;;;3.50;99.90;;;;;;5016332;28;20429;-77
2021/12/02 10:55:15;;;;;;;3.03;1.20;;;3.50;99.90;;;;;;5019296;28;20707;-74
2021/12/02 10:57:45;;;;;;;3.97;2.10;;;3.60;99.90;;;;;;5018780;28;20272;-77
2021/12/02 11:00:14;;;;;;;4.93;1.27;;;3.70;99.90;;;;;;5009359;28;20459;-76
2021/12/02 11:02:47;;;;;;;4.70;1.20;;;3.80;99.90;;;;;;5015526;28;20433;-76
2021/12/02 11:05:26;;;;;;;2.57;1.40;;;3.80;99.90;;;;;;5022704;28;20480;-77
2021/12/02 11:07:56;;;;;;;3.87;1.53;;;3.90;99.90;;;;;;5030333;28;20849;-77
2021/12/02 11:10:24;;;;;;;5.83;2.63;;;3.80;99.90;;;;;;5019420;28;20436;-76
2021/12/02 11:12:52;;;;;;;2.83;1.50;;;3.80;99.90;;;;;;5020927;28;20503;-77
2021/12/02 11:15:19;;;;;;;3.50;1.10;;;3.90;99.90;;;;;;5016829;28;20509;-77
2021/12/02 11:17:57;;;;;;;4.37;1.30;;;4.00;99.90;;;;;;5011379;28;20441;-77
2021/12/02 11:20:34;;;;;;;1.00;1.00;;;4.10;99.90;;;;;;5017369;28;20428;-76
2021/12/02 11:23:05;;;;;;;2.70;1.43;;;4.20;99.90;;;;;;5015857;28;20915;-77
2021/12/02 11:25:33;;;;;;;3.73;1.20;;;4.20;99.90;;;;;;5022145;28;20782;-77
2021/12/02 11:28:07;;;;;;;1.77;1.30;;;4.20;99.90;;;;;;5032820;28;20579;-76
2021/12/02 11:30:35;;;;;;;2.57;1.33;;;4.20;99.90;;;;;;5018989;28;20456;-76
2021/12/02 11:33:07;;;;;;;4.03;1.80;;;4.10;99.90;;;;;;5020204;28;20878;-76
2021/12/02 11:35:42;;;;;;;3.13;1.27;;;4.00;99.90;;;;;;5020604;28;20443;-76
2021/12/02 11:38:08;;;;;;;3.90;1.77;;;3.90;99.90;;;;;;5020132;28;20500;-77
2021/12/02 11:40:40;;;;;;;6.00;1.70;;;3.90;99.90;;;;;;5018840;28;20523;-76
2021/12/02 11:43:07;;;;;;;5.70;2.03;;;3.80;99.90;;;;;;5018061;28;20270;-76
2021/12/02 11:45:42;;;;;;;7.40;2.90;;;3.70;99.90;;;;;;5016088;28;20484;-76
2021/12/02 11:48:08;;;;;;;1.83;1.33;;;3.70;99.90;;;;;;5011837;28;20418;-76
2021/12/02 11:50:33;;;;;;;2.07;1.27;;;3.80;99.90;;;;;;5020209;28;20431;-76
2021/12/02 11:52:59;;;;;;;3.43;1.53;;;3.80;99.90;;;;;;5006032;28;20829;-76
2021/12/02 11:55:31;;;;;;;3.90;1.17;;;3.80;99.90;;;;;;5018128;28;20212;-75
2021/12/02 11:57:57;;;;;;;4.37;1.33;;;3.80;99.90;;;;;;5017488;28;21025;-75
2021/12/02 12:00:25;;;;;;;3.63;2.47;;;3.70;99.90;;;;;;5018626;28;20449;-76
2021/12/02 12:03:02;;;;;;;3.60;1.00;;;3.70;99.90;;;;;;5017661;28;20908;-76
2021/12/02 12:05:32;;;;;;;1.50;1.40;;;3.60;99.90;;;;;;5016483;28;20789;-76
2021/12/02 12:07:58;;;;;;;2.43;1.10;;;3.60;99.90;;;;;;5018465;28;20443;-76
2021/12/02 12:10:40;;;;;;;5.13;1.27;;;3.50;99.90;;;;;;5015721;28;20433;-76
2021/12/02 12:13:14;;;;;;;3.20;1.33;;;3.60;99.90;;;;;;5022804;28;20431;-77
2021/12/02 12:15:46;;;;;;;4.70;1.30;;;3.60;99.90;;;;;;5020023;28;20462;-77
2021/12/02 12:18:20;;;;;;;1.30;1.20;;;3.70;99.90;;;;;;5018242;28;20512;-78
2021/12/02 12:20:57;;;;;;;4.63;1.20;;;3.60;99.90;;;;;;5018154;28;20421;-78
2021/12/02 12:23:34;;;;;;;3.90;1.57;;;3.60;99.90;;;;;;5019554;28;20515;-77
2021/12/02 12:26:19;;;;;;;3.87;1.30;;;3.60;99.90;;;;;;5016405;28;20437;-77
2021/12/02 12:29:07;;;;;;;2.30;1.50;;;3.50;99.90;;;;;;5023051;28;20414;-78
2021/12/02 12:31:48;;;;;;;3.10;1.33;;;3.60;99.90;;;;;;5021166;28;20452;-77
2021/12/02 12:37:23;;;;;;;3.00;1.43;;;3.60;99.90;;;;;;5013085;28;20564;-77
2021/12/02 12:40:12;;;;;;;3.20;2.53;;;3.60;99.90;;;;;;5015887;28;20930;-77
2021/12/02 12:42:43;;;;;;;6.67;1.30;;;3.60;99.90;;;;;;5017497;28;20464;-76
2021/12/02 12:45:12;;;;;;;2.40;1.20;;;3.50;99.90;;;;;;5014108;28;20483;-77
2021/12/02 12:47:41;;;;;;;4.40;1.30;;;3.60;99.90;;;;;;5019327;28;20433;-77
2021/12/02 12:50:32;;;;;;;2.00;1.73;;;3.60;99.90;;;;;;5019576;28;20782;-77
2021/12/02 12:53:07;;;;;;;2.93;1.37;;;3.60;99.90;;;;;;5011118;28;20437;-76
2021/12/02 12:55:56;;;;;;;2.70;1.30;;;3.70;99.90;;;;;;5012238;28;20439;-76
2021/12/02 12:58:28;;;;;;;4.10;1.77;;;3.70;99.90;;;;;;5000040;28;20451;-76
2021/12/02 13:00:55;;;;;;;5.03;1.30;;;3.50;99.90;;;;;;5008823;28;20842;-77
2021/12/02 13:03:30;;;;;;;2.57;1.43;;;3.50;99.90;;;;;;5002103;28;20810;-77
2021/12/02 13:06:05;;;;;;;2.83;1.23;;;3.50;99.90;;;;;;5017981;28;20421;-76
2021/12/02 13:08:37;;;;;;;2.07;1.90;;;3.50;99.90;;;;;;5015015;28;20908;-76
2021/12/02 13:11:23;;;;;;;2.70;1.50;;;3.50;99.90;;;;;;5010690;28;20426;-76
2021/12/02 13:13:50;;;;;;;5.10;1.40;;;3.50;99.90;;;;;;5012072;28;21209;-77
2021/12/02 13:16:19;;;;;;;3.47;1.50;;;3.40;99.90;;;;;;5014935;28;20447;-76
2021/12/02 13:18:52;;;;;;;1.30;1.20;;;3.40;99.90;;;;;;5017798;28;20434;-78
2021/12/02 13:21:29;;;;;;;2.10;1.13;;;3.40;99.90;;;;;;5019565;28;20535;-76
2021/12/02 13:24:14;;;;;;;4.50;1.70;;;3.40;99.90;;;;;;5016165;28;20455;-77
2021/12/02 13:26:57;;;;;;;1.27;1.00;;;3.30;99.90;;;;;;5018529;28;20433;-77